sensor_id;sensor_type;location;lat;lon;timestamp;pressure;altitude;pressure_sealevel;temperature;humidity
55538;BME280;41383;51.418;7.286;2023-04-20T00:02:18;100298.69;;;9.93;39.29
55538;BME280;41383;51.418;7.286;2023-04-20T00:04:43;100304.97;;;9.94;39.53
55538;BME280;41383;51.418;7.286;2023-04-20T00:07:08;100300.44;;;10.00;39.76
55538;BME280;41383;51.418;7.286;2023-04-20T00:09:34;100289.38;;;10.07;39.63
55538;BME280;41383;51.418;7.286;2023-04-20T00:11:59;100283.00;;;10.01;39.35
55538;BME280;41383;51.418;7.286;2023-04-20T00:14:26;100282.00;;;10.07;39.61
55538;BME280;41383;51.418;7.286;2023-04-20T00:16:51;100280.69;;;10.10;39.35
55538;BME280;41383;51.418;7.286;2023-04-20T00:19:16;100272.69;;;10.03;39.75
55538;BME280;41383;51.418;7.286;2023-04-20T00:21:41;100277.72;;;10.11;40.27
55538;BME280;41383;51.418;7.286;2023-04-20T00:24:07;100272.84;;;10.13;40.04
55538;BME280;41383;51.418;7.286;2023-04-20T00:26:33;100262.63;;;10.21;40.63
55538;BME280;41383;51.418;7.286;2023-04-20T00:28:58;100261.69;;;10.15;40.66
55538;BME280;41383;51.418;7.286;2023-04-20T00:31:23;100260.72;;;10.04;40.97
55538;BME280;41383;51.418;7.286;2023-04-20T00:33:48;100250.16;;;10.08;41.05
55538;BME280;41383;51.418;7.286;2023-04-20T00:36:14;100251.00;;;10.08;41.25
55538;BME280;41383;51.418;7.286;2023-04-20T00:38:39;100245.22;;;10.04;41.42
55538;BME280;41383;51.418;7.286;2023-04-20T00:41:05;100246.59;;;10.07;41.16
55538;BME280;41383;51.418;7.286;2023-04-20T00:43:30;100235.63;;;10.02;40.93
55538;BME280;41383;51.418;7.286;2023-04-20T00:45:56;100238.38;;;10.02;41.15
55538;BME280;41383;51.418;7.286;2023-04-20T00:48:21;100232.34;;;10.00;41.42
55538;BME280;41383;51.418;7.286;2023-04-20T00:50:48;100225.75;;;9.96;42.28
55538;BME280;41383;51.418;7.286;2023-04-20T00:53:13;100222.69;;;9.92;41.21
55538;BME280;41383;51.418;7.286;2023-04-20T00:55:41;100218.81;;;9.88;41.67
55538;BME280;41383;51.418;7.286;2023-04-20T00:58:07;100208.09;;;9.81;42.12
55538;BME280;41383;51.418;7.286;2023-04-20T01:00:32;100202.25;;;9.72;42.02
55538;BME280;41383;51.418;7.286;2023-04-20T01:02:58;100199.19;;;9.68;42.28
55538;BME280;41383;51.418;7.286;2023-04-20T01:05:24;100189.28;;;9.62;41.83
55538;BME280;41383;51.418;7.286;2023-04-20T01:07:49;100197.31;;;9.52;42.60
55538;BME280;41383;51.418;7.286;2023-04-20T01:10:15;100183.34;;;9.48;41.82
55538;BME280;41383;51.418;7.286;2023-04-20T01:12:40;100187.63;;;9.44;42.65
55538;BME280;41383;51.418;7.286;2023-04-20T01:15:07;100197.03;;;9.36;42.73
55538;BME280;41383;51.418;7.286;2023-04-20T01:17:33;100184.50;;;9.35;42.31
55538;BME280;41383;51.418;7.286;2023-04-20T01:19:59;100190.78;;;9.36;42.01
55538;BME280;41383;51.418;7.286;2023-04-20T01:22:25;100181.78;;;9.35;42.28
55538;BME280;41383;51.418;7.286;2023-04-20T01:24:51;100173.38;;;9.37;42.00
55538;BME280;41383;51.418;7.286;2023-04-20T01:27:16;100174.00;;;9.44;41.64
55538;BME280;41383;51.418;7.286;2023-04-20T01:29:42;100166.84;;;9.38;42.06
55538;BME280;41383;51.418;7.286;2023-04-20T01:32:08;100164.53;;;9.46;42.21
55538;BME280;41383;51.418;7.286;2023-04-20T01:34:34;100155.63;;;9.51;41.19
55538;BME280;41383;51.418;7.286;2023-04-20T01:37:00;100160.75;;;9.30;41.52
55538;BME280;41383;51.418;7.286;2023-04-20T01:39:26;100145.41;;;9.41;42.46
55538;BME280;41383;51.418;7.286;2023-04-20T01:41:53;100145.91;;;9.38;42.17
55538;BME280;41383;51.418;7.286;2023-04-20T01:44:18;100136.69;;;9.39;41.62
55538;BME280;41383;51.418;7.286;2023-04-20T01:46:43;100133.53;;;9.30;41.88
55538;BME280;41383;51.418;7.286;2023-04-20T01:49:09;100124.63;;;9.35;42.18
55538;BME280;41383;51.418;7.286;2023-04-20T01:51:35;100125.53;;;9.41;42.65
55538;BME280;41383;51.418;7.286;2023-04-20T01:54:01;100125.28;;;9.42;42.70
55538;BME280;41383;51.418;7.286;2023-04-20T01:56:27;100127.75;;;9.44;42.84
55538;BME280;41383;51.418;7.286;2023-04-20T01:58:53;100116.53;;;9.40;42.39
55538;BME280;41383;51.418;7.286;2023-04-20T02:01:18;100113.34;;;9.43;42.62
55538;BME280;41383;51.418;7.286;2023-04-20T02:03:43;100114.41;;;9.42;42.24
55538;BME280;41383;51.418;7.286;2023-04-20T02:06:09;100109.94;;;9.36;42.91
55538;BME280;41383;51.418;7.286;2023-04-20T02:08:34;100104.34;;;9.43;42.69
55538;BME280;41383;51.418;7.286;2023-04-20T02:11:00;100103.50;;;9.42;42.15
55538;BME280;41383;51.418;7.286;2023-04-20T02:13:25;100105.91;;;9.39;43.39
55538;BME280;41383;51.418;7.286;2023-04-20T02:15:51;100097.59;;;9.45;42.84
55538;BME280;41383;51.418;7.286;2023-04-20T02:18:16;100107.81;;;9.38;42.86
55538;BME280;41383;51.418;7.286;2023-04-20T02:20:42;100100.41;;;9.33;43.56
55538;BME280;41383;51.418;7.286;2023-04-20T02:23:07;100089.59;;;9.39;43.05
55538;BME280;41383;51.418;7.286;2023-04-20T02:25:33;100095.94;;;9.27;42.81
55538;BME280;41383;51.418;7.286;2023-04-20T02:27:58;100089.69;;;9.27;43.41
55538;BME280;41383;51.418;7.286;2023-04-20T02:30:23;100088.09;;;9.31;43.09
55538;BME280;41383;51.418;7.286;2023-04-20T02:32:49;100083.31;;;9.38;43.26
55538;BME280;41383;51.418;7.286;2023-04-20T02:35:14;100088.84;;;9.43;43.05
55538;BME280;41383;51.418;7.286;2023-04-20T02:37:40;100077.72;;;9.28;43.36
55538;BME280;41383;51.418;7.286;2023-04-20T02:40:05;100081.41;;;9.39;43.57
55538;BME280;41383;51.418;7.286;2023-04-20T02:42:31;100074.56;;;9.36;44.09
55538;BME280;41383;51.418;7.286;2023-04-20T02:44:57;100075.16;;;9.38;44.15
55538;BME280;41383;51.418;7.286;2023-04-20T02:47:22;100072.34;;;9.33;44.19
55538;BME280;41383;51.418;7.286;2023-04-20T02:49:47;100070.53;;;9.39;44.21
55538;BME280;41383;51.418;7.286;2023-04-20T02:52:13;100066.97;;;9.38;44.77
55538;BME280;41383;51.418;7.286;2023-04-20T02:54:41;100068.53;;;9.51;45.28
55538;BME280;41383;51.418;7.286;2023-04-20T02:57:06;100064.72;;;9.52;45.52
55538;BME280;41383;51.418;7.286;2023-04-20T02:59:31;100059.81;;;9.49;46.14
55538;BME280;41383;51.418;7.286;2023-04-20T03:01:57;100061.78;;;9.54;46.35
55538;BME280;41383;51.418;7.286;2023-04-20T03:04:22;100060.63;;;9.50;46.23
55538;BME280;41383;51.418;7.286;2023-04-20T03:06:48;100052.38;;;9.44;46.17
55538;BME280;41383;51.418;7.286;2023-04-20T03:09:14;100058.13;;;9.48;46.50
55538;BME280;41383;51.418;7.286;2023-04-20T03:11:40;100059.13;;;9.42;46.84
55538;BME280;41383;51.418;7.286;2023-04-20T03:14:05;100057.59;;;9.29;47.83
55538;BME280;41383;51.418;7.286;2023-04-20T03:16:30;100049.28;;;9.36;47.63
55538;BME280;41383;51.418;7.286;2023-04-20T03:18:56;100047.78;;;9.28;47.57
55538;BME280;41383;51.418;7.286;2023-04-20T03:21:21;100038.94;;;9.38;47.98
55538;BME280;41383;51.418;7.286;2023-04-20T03:23:46;100042.31;;;9.45;48.16
55538;BME280;41383;51.418;7.286;2023-04-20T03:26:12;100042.84;;;9.25;48.82
55538;BME280;41383;51.418;7.286;2023-04-20T03:28:37;100047.06;;;8.98;50.01
55538;BME280;41383;51.418;7.286;2023-04-20T03:31:02;100044.09;;;9.17;50.10
55538;BME280;41383;51.418;7.286;2023-04-20T03:33:30;100036.66;;;9.29;49.98
55538;BME280;41383;51.418;7.286;2023-04-20T03:35:55;100041.69;;;9.20;50.33
55538;BME280;41383;51.418;7.286;2023-04-20T03:38:21;100039.13;;;9.31;50.38
55538;BME280;41383;51.418;7.286;2023-04-20T03:40:46;100034.94;;;9.06;50.98
55538;BME280;41383;51.418;7.286;2023-04-20T03:43:11;100032.13;;;9.18;51.45
55538;BME280;41383;51.418;7.286;2023-04-20T03:45:36;100032.59;;;9.32;51.17
55538;BME280;41383;51.418;7.286;2023-04-20T03:48:02;100028.16;;;9.26;51.55
55538;BME280;41383;51.418;7.286;2023-04-20T03:50:27;100023.75;;;9.02;52.55
55538;BME280;41383;51.418;7.286;2023-04-20T03:52:53;100019.19;;;9.08;52.99
55538;BME280;41383;51.418;7.286;2023-04-20T03:55:18;100016.25;;;8.92;53.59
55538;BME280;41383;51.418;7.286;2023-04-20T03:57:44;100024.91;;;9.06;53.55
55538;BME280;41383;51.418;7.286;2023-04-20T04:00:10;100024.56;;;9.03;54.44
55538;BME280;41383;51.418;7.286;2023-04-20T04:02:36;100025.78;;;9.12;54.06
55538;BME280;41383;51.418;7.286;2023-04-20T04:05:01;100021.19;;;9.13;54.25
55538;BME280;41383;51.418;7.286;2023-04-20T04:07:27;100010.03;;;9.14;54.45
55538;BME280;41383;51.418;7.286;2023-04-20T04:09:52;100013.19;;;8.89;55.18
55538;BME280;41383;51.418;7.286;2023-04-20T04:12:17;100012.59;;;9.04;55.04
55538;BME280;41383;51.418;7.286;2023-04-20T04:14:43;100010.22;;;8.90;55.61
55538;BME280;41383;51.418;7.286;2023-04-20T04:17:08;100012.28;;;8.83;56.33
55538;BME280;41383;51.418;7.286;2023-04-20T04:19:33;100016.81;;;8.94;55.96
55538;BME280;41383;51.418;7.286;2023-04-20T04:21:58;100017.97;;;8.98;56.11
55538;BME280;41383;51.418;7.286;2023-04-20T04:24:24;100011.78;;;8.86;56.84
55538;BME280;41383;51.418;7.286;2023-04-20T04:26:51;100017.63;;;8.78;57.40
55538;BME280;41383;51.418;7.286;2023-04-20T04:29:16;100008.97;;;8.81;57.46
55538;BME280;41383;51.418;7.286;2023-04-20T04:31:41;100009.66;;;8.88;57.46
55538;BME280;41383;51.418;7.286;2023-04-20T04:34:06;100006.50;;;8.79;58.01
55538;BME280;41383;51.418;7.286;2023-04-20T04:36:32;100009.06;;;8.86;58.18
55538;BME280;41383;51.418;7.286;2023-04-20T04:38:57;100009.16;;;8.91;58.59
55538;BME280;41383;51.418;7.286;2023-04-20T04:41:23;100008.16;;;8.97;58.83
55538;BME280;41383;51.418;7.286;2023-04-20T04:43:49;100001.66;;;8.98;59.12
55538;BME280;41383;51.418;7.286;2023-04-20T04:46:14;100005.75;;;9.01;59.19
55538;BME280;41383;51.418;7.286;2023-04-20T04:48:40;100007.91;;;8.99;59.18
55538;BME280;41383;51.418;7.286;2023-04-20T04:51:07;100013.53;;;8.92;59.96
55538;BME280;41383;51.418;7.286;2023-04-20T04:53:32;100011.28;;;8.89;60.00
55538;BME280;41383;51.418;7.286;2023-04-20T04:55:58;100014.34;;;8.93;59.91
55538;BME280;41383;51.418;7.286;2023-04-20T04:58:23;100016.31;;;9.15;59.35
55538;BME280;41383;51.418;7.286;2023-04-20T05:00:49;100010.72;;;9.04;59.87
55538;BME280;41383;51.418;7.286;2023-04-20T05:03:14;100018.63;;;9.06;59.34
55538;BME280;41383;51.418;7.286;2023-04-20T05:05:40;100016.41;;;9.03;59.99
55538;BME280;41383;51.418;7.286;2023-04-20T05:08:05;100013.78;;;8.91;59.76
55538;BME280;41383;51.418;7.286;2023-04-20T05:10:30;100015.16;;;8.93;59.43
55538;BME280;41383;51.418;7.286;2023-04-20T05:12:56;100007.41;;;8.85;59.68
55538;BME280;41383;51.418;7.286;2023-04-20T05:15:23;100018.78;;;8.64;60.46
55538;BME280;41383;51.418;7.286;2023-04-20T05:17:48;100010.22;;;8.90;59.65
55538;BME280;41383;51.418;7.286;2023-04-20T05:20:14;100016.00;;;8.94;59.27
55538;BME280;41383;51.418;7.286;2023-04-20T05:22:39;100023.22;;;8.71;59.74
55538;BME280;41383;51.418;7.286;2023-04-20T05:25:05;100011.22;;;8.84;59.05
55538;BME280;41383;51.418;7.286;2023-04-20T05:27:32;100020.28;;;8.72;59.26
55538;BME280;41383;51.418;7.286;2023-04-20T05:29:57;100018.16;;;8.74;60.01
55538;BME280;41383;51.418;7.286;2023-04-20T05:32:22;100022.66;;;8.86;59.45
55538;BME280;41383;51.418;7.286;2023-04-20T05:34:47;100025.38;;;8.86;59.77
55538;BME280;41383;51.418;7.286;2023-04-20T05:37:14;100029.34;;;8.78;60.05
55538;BME280;41383;51.418;7.286;2023-04-20T05:39:39;100026.63;;;8.78;59.88
55538;BME280;41383;51.418;7.286;2023-04-20T05:42:05;100020.63;;;8.76;60.82
55538;BME280;41383;51.418;7.286;2023-04-20T05:44:30;100030.31;;;8.72;61.84
55538;BME280;41383;51.418;7.286;2023-04-20T05:46:55;100027.03;;;8.87;61.98
55538;BME280;41383;51.418;7.286;2023-04-20T05:49:21;100034.13;;;8.88;62.13
55538;BME280;41383;51.418;7.286;2023-04-20T05:51:46;100036.00;;;8.70;62.88
55538;BME280;41383;51.418;7.286;2023-04-20T05:54:11;100036.63;;;8.60;64.05
55538;BME280;41383;51.418;7.286;2023-04-20T05:56:37;100048.09;;;8.62;64.70
55538;BME280;41383;51.418;7.286;2023-04-20T05:59:02;100040.47;;;8.47;65.70
55538;BME280;41383;51.418;7.286;2023-04-20T06:01:28;100042.28;;;8.41;66.59
55538;BME280;41383;51.418;7.286;2023-04-20T06:03:53;100041.97;;;8.26;67.79
55538;BME280;41383;51.418;7.286;2023-04-20T06:06:18;100044.09;;;8.53;66.61
55538;BME280;41383;51.418;7.286;2023-04-20T06:08:43;100036.19;;;8.51;67.24
55538;BME280;41383;51.418;7.286;2023-04-20T06:11:09;100030.25;;;8.55;66.77
55538;BME280;41383;51.418;7.286;2023-04-20T06:13:34;100036.31;;;8.57;66.94
55538;BME280;41383;51.418;7.286;2023-04-20T06:15:59;100039.06;;;8.74;66.17
55538;BME280;41383;51.418;7.286;2023-04-20T06:18:25;100035.34;;;8.63;66.84
55538;BME280;41383;51.418;7.286;2023-04-20T06:20:50;100027.47;;;8.49;67.44
55538;BME280;41383;51.418;7.286;2023-04-20T06:23:15;100036.00;;;8.41;67.71
55538;BME280;41383;51.418;7.286;2023-04-20T06:25:40;100031.06;;;8.38;67.70
55538;BME280;41383;51.418;7.286;2023-04-20T06:28:07;100028.94;;;8.40;67.98
55538;BME280;41383;51.418;7.286;2023-04-20T06:30:33;100021.50;;;8.35;68.03
55538;BME280;41383;51.418;7.286;2023-04-20T06:32:59;100022.50;;;8.46;67.58
55538;BME280;41383;51.418;7.286;2023-04-20T06:35:24;100011.94;;;8.33;67.94
55538;BME280;41383;51.418;7.286;2023-04-20T06:37:50;100019.03;;;8.34;68.37
55538;BME280;41383;51.418;7.286;2023-04-20T06:40:15;100023.31;;;8.29;68.15
55538;BME280;41383;51.418;7.286;2023-04-20T06:42:41;100028.88;;;8.23;68.09
55538;BME280;41383;51.418;7.286;2023-04-20T06:45:07;100019.63;;;8.06;69.02
55538;BME280;41383;51.418;7.286;2023-04-20T06:47:32;100014.34;;;8.29;68.43
55538;BME280;41383;51.418;7.286;2023-04-20T06:50:01;100006.38;;;8.39;68.20
55538;BME280;41383;51.418;7.286;2023-04-20T06:52:28;100027.59;;;8.43;67.64
55538;BME280;41383;51.418;7.286;2023-04-20T06:54:57;100026.97;;;8.52;67.63
55538;BME280;41383;51.418;7.286;2023-04-20T06:57:22;100017.75;;;8.53;67.98
55538;BME280;41383;51.418;7.286;2023-04-20T06:59:47;100019.38;;;8.55;68.45
55538;BME280;41383;51.418;7.286;2023-04-20T07:02:13;100017.78;;;8.71;67.71
55538;BME280;41383;51.418;7.286;2023-04-20T07:04:38;100020.34;;;8.78;67.14
55538;BME280;41383;51.418;7.286;2023-04-20T07:07:03;100007.69;;;8.66;67.17
55538;BME280;41383;51.418;7.286;2023-04-20T07:09:28;100014.34;;;8.58;67.14
55538;BME280;41383;51.418;7.286;2023-04-20T07:11:54;100007.03;;;8.47;68.17
55538;BME280;41383;51.418;7.286;2023-04-20T07:14:20;100013.00;;;8.61;67.28
55538;BME280;41383;51.418;7.286;2023-04-20T07:16:45;100004.78;;;8.73;66.96
55538;BME280;41383;51.418;7.286;2023-04-20T07:19:11;100003.63;;;8.86;66.70
55538;BME280;41383;51.418;7.286;2023-04-20T07:21:36;100001.81;;;8.92;66.01
55538;BME280;41383;51.418;7.286;2023-04-20T07:24:02;100022.41;;;8.87;66.45
55538;BME280;41383;51.418;7.286;2023-04-20T07:26:27;100013.69;;;8.85;65.75
55538;BME280;41383;51.418;7.286;2023-04-20T07:28:52;100009.25;;;8.96;66.14
55538;BME280;41383;51.418;7.286;2023-04-20T07:31:17;100005.78;;;8.84;66.08
55538;BME280;41383;51.418;7.286;2023-04-20T07:33:43;100007.78;;;8.89;66.71
55538;BME280;41383;51.418;7.286;2023-04-20T07:36:08;100001.00;;;8.91;66.22
55538;BME280;41383;51.418;7.286;2023-04-20T07:38:34;100000.28;;;8.79;65.97
55538;BME280;41383;51.418;7.286;2023-04-20T07:41:00;100008.91;;;8.75;66.31
55538;BME280;41383;51.418;7.286;2023-04-20T07:43:25;100002.47;;;8.82;66.18
55538;BME280;41383;51.418;7.286;2023-04-20T07:45:50;100001.84;;;8.74;66.13
55538;BME280;41383;51.418;7.286;2023-04-20T07:48:16;100005.56;;;8.56;66.10
55538;BME280;41383;51.418;7.286;2023-04-20T07:50:41;100011.31;;;8.72;65.81
55538;BME280;41383;51.418;7.286;2023-04-20T07:53:07;100002.75;;;8.80;65.60
55538;BME280;41383;51.418;7.286;2023-04-20T07:55:32;100002.81;;;8.85;66.04
55538;BME280;41383;51.418;7.286;2023-04-20T07:57:57;100005.94;;;8.94;66.07
55538;BME280;41383;51.418;7.286;2023-04-20T08:00:24;99998.84;;;8.93;66.39
55538;BME280;41383;51.418;7.286;2023-04-20T08:02:50;99999.69;;;8.94;66.66
55538;BME280;41383;51.418;7.286;2023-04-20T08:05:15;99996.69;;;8.95;66.43
55538;BME280;41383;51.418;7.286;2023-04-20T08:07:40;99994.50;;;8.92;65.99
55538;BME280;41383;51.418;7.286;2023-04-20T08:10:06;99995.38;;;8.81;66.32
55538;BME280;41383;51.418;7.286;2023-04-20T08:12:31;99982.72;;;8.86;66.31
55538;BME280;41383;51.418;7.286;2023-04-20T08:14:57;99985.59;;;8.80;66.84
55538;BME280;41383;51.418;7.286;2023-04-20T08:17:26;99997.03;;;8.64;67.41
55538;BME280;41383;51.418;7.286;2023-04-20T08:19:51;99987.56;;;8.67;67.05
55538;BME280;41383;51.418;7.286;2023-04-20T08:22:17;99984.94;;;8.72;66.66
55538;BME280;41383;51.418;7.286;2023-04-20T08:24:42;99991.78;;;8.58;67.30
55538;BME280;41383;51.418;7.286;2023-04-20T08:27:08;99981.06;;;8.68;67.12
55538;BME280;41383;51.418;7.286;2023-04-20T08:29:33;99985.09;;;8.83;66.72
55538;BME280;41383;51.418;7.286;2023-04-20T08:31:58;99988.31;;;8.80;67.01
55538;BME280;41383;51.418;7.286;2023-04-20T08:34:23;99981.81;;;8.63;67.48
55538;BME280;41383;51.418;7.286;2023-04-20T08:36:49;99992.03;;;8.44;68.63
55538;BME280;41383;51.418;7.286;2023-04-20T08:39:20;99988.13;;;8.52;68.25
55538;BME280;41383;51.418;7.286;2023-04-20T08:41:49;99995.91;;;8.48;68.42
55538;BME280;41383;51.418;7.286;2023-04-20T08:44:17;99985.44;;;8.69;67.45
55538;BME280;41383;51.418;7.286;2023-04-20T08:46:46;99989.88;;;8.93;67.38
55538;BME280;41383;51.418;7.286;2023-04-20T08:49:14;99984.00;;;9.01;66.85
55538;BME280;41383;51.418;7.286;2023-04-20T08:51:39;99996.13;;;9.10;67.31
55538;BME280;41383;51.418;7.286;2023-04-20T08:54:05;99978.84;;;9.39;66.76
55538;BME280;41383;51.418;7.286;2023-04-20T08:56:43;99978.78;;;9.56;67.20
55538;BME280;41383;51.418;7.286;2023-04-20T08:59:09;99980.47;;;9.85;66.13
55538;BME280;41383;51.418;7.286;2023-04-20T09:01:36;99978.31;;;9.87;65.93
55538;BME280;41383;51.418;7.286;2023-04-20T09:04:02;99978.84;;;9.84;65.71
55538;BME280;41383;51.418;7.286;2023-04-20T09:06:27;99981.34;;;9.91;65.43
55538;BME280;41383;51.418;7.286;2023-04-20T09:08:53;99978.31;;;9.87;64.96
55538;BME280;41383;51.418;7.286;2023-04-20T09:11:23;99974.22;;;9.85;64.50
55538;BME280;41383;51.418;7.286;2023-04-20T09:14:08;99983.97;;;9.58;64.77
55538;BME280;41383;51.418;7.286;2023-04-20T09:16:35;99979.66;;;9.62;64.10
55538;BME280;41383;51.418;7.286;2023-04-20T09:19:01;99976.84;;;9.52;63.71
55538;BME280;41383;51.418;7.286;2023-04-20T09:21:27;99984.88;;;9.64;64.17
55538;BME280;41383;51.418;7.286;2023-04-20T09:24:03;99981.88;;;9.65;63.85
55538;BME280;41383;51.418;7.286;2023-04-20T09:26:32;99980.44;;;9.80;62.89
55538;BME280;41383;51.418;7.286;2023-04-20T09:28:59;99984.63;;;9.65;63.45
55538;BME280;41383;51.418;7.286;2023-04-20T09:31:25;99986.44;;;10.04;62.81
55538;BME280;41383;51.418;7.286;2023-04-20T09:34:00;99982.66;;;10.38;62.47
55538;BME280;41383;51.418;7.286;2023-04-20T09:39:12;99980.50;;;10.41;62.48
55538;BME280;41383;51.418;7.286;2023-04-20T09:41:39;99988.22;;;10.21;63.50
55538;BME280;41383;51.418;7.286;2023-04-20T09:44:06;99982.56;;;10.28;64.22
55538;BME280;41383;51.418;7.286;2023-04-20T09:46:33;99977.91;;;10.51;63.73
55538;BME280;41383;51.418;7.286;2023-04-20T09:48:59;99977.66;;;10.25;65.18
55538;BME280;41383;51.418;7.286;2023-04-20T09:51:26;99975.31;;;10.11;65.75
55538;BME280;41383;51.418;7.286;2023-04-20T09:53:53;99978.09;;;10.16;65.23
55538;BME280;41383;51.418;7.286;2023-04-20T09:56:19;99987.31;;;9.88;65.52
55538;BME280;41383;51.418;7.286;2023-04-20T09:58:46;99981.28;;;10.08;66.08
55538;BME280;41383;51.418;7.286;2023-04-20T10:01:11;99976.97;;;10.40;65.71
55538;BME280;41383;51.418;7.286;2023-04-20T10:03:36;99976.31;;;10.55;64.95
55538;BME280;41383;51.418;7.286;2023-04-20T10:06:02;99972.09;;;10.75;64.28
55538;BME280;41383;51.418;7.286;2023-04-20T10:08:27;99969.47;;;10.85;63.13
55538;BME280;41383;51.418;7.286;2023-04-20T10:11:03;99965.41;;;10.93;63.19
55538;BME280;41383;51.418;7.286;2023-04-20T10:13:32;99964.44;;;11.10;62.54
55538;BME280;41383;51.418;7.286;2023-04-20T10:15:58;99959.91;;;11.31;60.93
55538;BME280;41383;51.418;7.286;2023-04-20T10:18:23;99965.91;;;10.85;61.44
55538;BME280;41383;51.418;7.286;2023-04-20T10:20:49;99969.97;;;10.82;61.85
55538;BME280;41383;51.418;7.286;2023-04-20T10:23:15;99958.47;;;10.75;62.22
55538;BME280;41383;51.418;7.286;2023-04-20T10:25:42;99958.91;;;10.61;61.32
55538;BME280;41383;51.418;7.286;2023-04-20T10:28:18;99961.81;;;10.49;61.80
55538;BME280;41383;51.418;7.286;2023-04-20T10:30:51;99954.28;;;10.34;61.72
55538;BME280;41383;51.418;7.286;2023-04-20T10:33:17;99966.81;;;10.35;62.49
55538;BME280;41383;51.418;7.286;2023-04-20T10:35:51;99962.50;;;10.39;61.85
55538;BME280;41383;51.418;7.286;2023-04-20T10:38:32;99953.56;;;10.44;61.52
55538;BME280;41383;51.418;7.286;2023-04-20T10:41:11;99958.66;;;10.35;62.35
55538;BME280;41383;51.418;7.286;2023-04-20T10:43:37;99952.00;;;10.54;61.78
55538;BME280;41383;51.418;7.286;2023-04-20T10:46:18;99956.91;;;10.51;61.24
55538;BME280;41383;51.418;7.286;2023-04-20T10:48:52;99952.22;;;10.47;61.58
55538;BME280;41383;51.418;7.286;2023-04-20T10:51:18;99960.34;;;10.42;61.46
55538;BME280;41383;51.418;7.286;2023-04-20T10:53:44;99953.56;;;10.44;61.58
55538;BME280;41383;51.418;7.286;2023-04-20T10:56:09;99953.75;;;10.65;61.08
55538;BME280;41383;51.418;7.286;2023-04-20T10:58:35;99953.13;;;10.58;61.13
55538;BME280;41383;51.418;7.286;2023-04-20T11:01:04;99953.03;;;10.80;60.50
55538;BME280;41383;51.418;7.286;2023-04-20T11:03:31;99945.59;;;10.65;60.91
55538;BME280;41383;51.418;7.286;2023-04-20T11:05:58;99950.69;;;10.56;60.83
55538;BME280;41383;51.418;7.286;2023-04-20T11:08:54;99941.09;;;10.86;60.13
55538;BME280;41383;51.418;7.286;2023-04-20T11:11:22;99935.69;;;10.97;59.60
55538;BME280;41383;51.418;7.286;2023-04-20T11:13:52;99939.66;;;11.22;59.23
55538;BME280;41383;51.418;7.286;2023-04-20T11:16:28;99930.03;;;11.68;57.20
55538;BME280;41383;51.418;7.286;2023-04-20T11:18:54;99922.31;;;11.49;58.04
55538;BME280;41383;51.418;7.286;2023-04-20T11:21:22;99924.56;;;11.68;56.88
55538;BME280;41383;51.418;7.286;2023-04-20T11:23:48;99917.47;;;11.67;55.94
55538;BME280;41383;51.418;7.286;2023-04-20T11:26:14;99916.44;;;11.84;55.83
55538;BME280;41383;51.418;7.286;2023-04-20T11:28:53;99916.13;;;11.80;54.43
55538;BME280;41383;51.418;7.286;2023-04-20T11:31:19;99922.38;;;11.70;54.34
55538;BME280;41383;51.418;7.286;2023-04-20T11:33:45;99918.97;;;12.32;54.42
55538;BME280;41383;51.418;7.286;2023-04-20T11:36:23;99906.94;;;12.65;51.80
55538;BME280;41383;51.418;7.286;2023-04-20T11:38:49;99905.84;;;12.40;51.20
55538;BME280;41383;51.418;7.286;2023-04-20T11:41:15;99910.19;;;12.14;51.77
55538;BME280;41383;51.418;7.286;2023-04-20T11:43:41;99913.16;;;11.92;52.36
55538;BME280;41383;51.418;7.286;2023-04-20T11:48:39;99918.06;;;11.90;51.69
55538;BME280;41383;51.418;7.286;2023-04-20T11:51:05;99914.56;;;12.00;52.35
55538;BME280;41383;51.418;7.286;2023-04-20T11:53:30;99910.47;;;12.08;52.13
55538;BME280;41383;51.418;7.286;2023-04-20T11:55:56;99915.94;;;12.08;51.67
55538;BME280;41383;51.418;7.286;2023-04-20T11:58:21;99915.06;;;11.91;52.18
55538;BME280;41383;51.418;7.286;2023-04-20T12:00:46;99913.50;;;11.26;52.87
55538;BME280;41383;51.418;7.286;2023-04-20T12:03:11;99916.50;;;11.25;53.89
55538;BME280;41383;51.418;7.286;2023-04-20T12:05:37;99911.94;;;11.46;53.63
55538;BME280;41383;51.418;7.286;2023-04-20T12:08:02;99917.66;;;11.50;53.40
55538;BME280;41383;51.418;7.286;2023-04-20T12:10:27;99916.84;;;11.49;53.53
55538;BME280;41383;51.418;7.286;2023-04-20T12:12:53;99918.50;;;11.45;53.14
55538;BME280;41383;51.418;7.286;2023-04-20T12:15:18;99921.00;;;11.57;53.16
55538;BME280;41383;51.418;7.286;2023-04-20T12:17:43;99916.84;;;11.49;52.80
55538;BME280;41383;51.418;7.286;2023-04-20T12:20:09;99910.88;;;11.52;53.25
55538;BME280;41383;51.418;7.286;2023-04-20T12:22:36;99921.56;;;11.70;52.22
55538;BME280;41383;51.418;7.286;2023-04-20T12:25:02;99915.41;;;12.11;52.29
55538;BME280;41383;51.418;7.286;2023-04-20T12:27:28;99918.91;;;12.06;51.70
55538;BME280;41383;51.418;7.286;2023-04-20T12:29:53;99912.13;;;12.19;50.82
55538;BME280;41383;51.418;7.286;2023-04-20T12:32:18;99915.06;;;11.97;50.96
55538;BME280;41383;51.418;7.286;2023-04-20T12:34:43;99904.94;;;11.82;50.78
55538;BME280;41383;51.418;7.286;2023-04-20T12:37:09;99907.16;;;11.95;50.23
55538;BME280;41383;51.418;7.286;2023-04-20T12:39:35;99910.97;;;11.84;50.12
55538;BME280;41383;51.418;7.286;2023-04-20T12:42:00;99909.25;;;11.62;49.36
55538;BME280;41383;51.418;7.286;2023-04-20T12:44:27;99910.16;;;11.99;50.31
55538;BME280;41383;51.418;7.286;2023-04-20T12:46:52;99912.41;;;12.75;49.19
55538;BME280;41383;51.418;7.286;2023-04-20T12:49:17;99913.50;;;12.69;47.79
55538;BME280;41383;51.418;7.286;2023-04-20T12:51:42;99909.41;;;12.40;47.21
55538;BME280;41383;51.418;7.286;2023-04-20T12:54:08;99916.78;;;12.50;47.24
55538;BME280;41383;51.418;7.286;2023-04-20T12:56:33;99908.31;;;12.62;46.34
55538;BME280;41383;51.418;7.286;2023-04-20T12:58:58;99903.22;;;13.32;45.16
55538;BME280;41383;51.418;7.286;2023-04-20T13:01:24;99902.19;;;13.07;45.01